sensor_id;sensor_type;location;lat;lon;timestamp;temperature;humidity
3626;DHT22;1827;50.534;8.316;2023-04-03T00:01:36;3.80;1.00
3626;DHT22;1827;50.534;8.316;2023-04-03T00:04:04;3.90;1.00
3626;DHT22;1827;50.534;8.316;2023-04-03T00:06:31;3.90;1.00
3626;DHT22;1827;50.534;8.316;2023-04-03T00:08:59;3.90;1.00
3626;DHT22;1827;50.534;8.316;2023-04-03T00:11:24;3.90;1.00
3626;DHT22;1827;50.534;8.316;2023-04-03T00:13:50;3.90;1.00
3626;DHT22;1827;50.534;8.316;2023-04-03T00:16:16;3.80;1.00
3626;DHT22;1827;50.534;8.316;2023-04-03T00:18:42;3.90;1.00
3626;DHT22;1827;50.534;8.316;2023-04-03T00:21:10;3.90;1.00
3626;DHT22;1827;50.534;8.316;2023-04-03T00:23:37;3.90;1.00
3626;DHT22;1827;50.534;8.316;2023-04-03T00:26:03;3.90;1.00
3626;DHT22;1827;50.534;8.316;2023-04-03T00:28:29;3.90;1.00
3626;DHT22;1827;50.534;8.316;2023-04-03T00:30:55;3.90;1.00
3626;DHT22;1827;50.534;8.316;2023-04-03T00:33:20;3.90;1.00
3626;DHT22;1827;50.534;8.316;2023-04-03T00:35:47;3.90;1.00
3626;DHT22;1827;50.534;8.316;2023-04-03T00:38:14;3.90;1.00
3626;DHT22;1827;50.534;8.316;2023-04-03T00:40:43;3.80;1.00
3626;DHT22;1827;50.534;8.316;2023-04-03T00:43:19;3.80;1.00
3626;DHT22;1827;50.534;8.316;2023-04-03T00:45:51;3.80;1.00
3626;DHT22;1827;50.534;8.316;2023-04-03T00:48:26;3.80;1.00
3626;DHT22;1827;50.534;8.316;2023-04-03T00:50:53;3.90;1.00
3626;DHT22;1827;50.534;8.316;2023-04-03T00:53:25;3.90;1.00
3626;DHT22;1827;50.534;8.316;2023-04-03T00:55:54;3.90;1.00
3626;DHT22;1827;50.534;8.316;2023-04-03T00:58:28;3.90;1.00
3626;DHT22;1827;50.534;8.316;2023-04-03T01:00:58;3.90;1.00
3626;DHT22;1827;50.534;8.316;2023-04-03T01:03:27;4.00;1.00
3626;DHT22;1827;50.534;8.316;2023-04-03T01:05:53;3.90;1.00
3626;DHT22;1827;50.534;8.316;2023-04-03T01:08:20;4.00;1.00
3626;DHT22;1827;50.534;8.316;2023-04-03T01:10:45;4.00;1.00
3626;DHT22;1827;50.534;8.316;2023-04-03T01:13:28;4.00;1.00
3626;DHT22;1827;50.534;8.316;2023-04-03T01:15:54;4.00;1.00
3626;DHT22;1827;50.534;8.316;2023-04-03T01:18:22;4.00;1.00
3626;DHT22;1827;50.534;8.316;2023-04-03T01:20:51;4.00;1.00
3626;DHT22;1827;50.534;8.316;2023-04-03T01:24:11;4.00;1.00
3626;DHT22;1827;50.534;8.316;2023-04-03T01:26:12;4.00;1.00
3626;DHT22;1827;50.534;8.316;2023-04-03T01:28:37;3.90;1.00
3626;DHT22;1827;50.534;8.316;2023-04-03T01:33:43;4.00;1.00
3626;DHT22;1827;50.534;8.316;2023-04-03T01:36:09;4.00;1.00
3626;DHT22;1827;50.534;8.316;2023-04-03T01:38:35;4.00;1.00
3626;DHT22;1827;50.534;8.316;2023-04-03T01:41:01;3.90;1.00
3626;DHT22;1827;50.534;8.316;2023-04-03T01:43:27;3.90;1.00
3626;DHT22;1827;50.534;8.316;2023-04-03T01:45:53;3.90;1.00
3626;DHT22;1827;50.534;8.316;2023-04-03T01:48:20;3.90;1.00
3626;DHT22;1827;50.534;8.316;2023-04-03T01:50:46;3.90;1.00
3626;DHT22;1827;50.534;8.316;2023-04-03T01:53:13;3.90;1.00
3626;DHT22;1827;50.534;8.316;2023-04-03T01:55:39;4.00;1.00
3626;DHT22;1827;50.534;8.316;2023-04-03T01:58:05;3.90;1.00
3626;DHT22;1827;50.534;8.316;2023-04-03T02:00:31;4.00;1.00
3626;DHT22;1827;50.534;8.316;2023-04-03T02:02:57;4.00;1.00
3626;DHT22;1827;50.534;8.316;2023-04-03T02:05:23;4.10;1.00
3626;DHT22;1827;50.534;8.316;2023-04-03T02:07:49;4.00;1.00
3626;DHT22;1827;50.534;8.316;2023-04-03T02:10:15;4.10;1.00
3626;DHT22;1827;50.534;8.316;2023-04-03T02:12:41;4.00;1.00
3626;DHT22;1827;50.534;8.316;2023-04-03T02:15:07;3.90;99.90
3626;DHT22;1827;50.534;8.316;2023-04-03T02:17:34;3.90;99.90
3626;DHT22;1827;50.534;8.316;2023-04-03T02:20:00;3.90;99.90
3626;DHT22;1827;50.534;8.316;2023-04-03T02:22:27;3.90;99.90
3626;DHT22;1827;50.534;8.316;2023-04-03T02:24:53;3.90;99.90
3626;DHT22;1827;50.534;8.316;2023-04-03T02:27:19;3.90;99.90
3626;DHT22;1827;50.534;8.316;2023-04-03T02:29:48;3.90;99.90
3626;DHT22;1827;50.534;8.316;2023-04-03T02:32:14;3.80;99.90
3626;DHT22;1827;50.534;8.316;2023-04-03T02:34:40;3.70;99.90
3626;DHT22;1827;50.534;8.316;2023-04-03T02:37:07;3.70;99.90
3626;DHT22;1827;50.534;8.316;2023-04-03T02:39:34;3.70;99.90
3626;DHT22;1827;50.534;8.316;2023-04-03T02:42:00;3.70;99.90
3626;DHT22;1827;50.534;8.316;2023-04-03T02:44:27;3.70;99.90
3626;DHT22;1827;50.534;8.316;2023-04-03T02:46:54;3.60;99.90
3626;DHT22;1827;50.534;8.316;2023-04-03T02:49:19;3.60;99.90
3626;DHT22;1827;50.534;8.316;2023-04-03T02:51:45;3.50;99.90
3626;DHT22;1827;50.534;8.316;2023-04-03T02:54:11;3.50;99.90
3626;DHT22;1827;50.534;8.316;2023-04-03T02:56:41;3.50;99.90
3626;DHT22;1827;50.534;8.316;2023-04-03T02:59:07;3.40;99.90
3626;DHT22;1827;50.534;8.316;2023-04-03T03:01:35;3.40;99.90
3626;DHT22;1827;50.534;8.316;2023-04-03T03:04:01;3.40;99.90
3626;DHT22;1827;50.534;8.316;2023-04-03T03:06:27;3.30;99.90
3626;DHT22;1827;50.534;8.316;2023-04-03T03:08:54;3.30;99.90
3626;DHT22;1827;50.534;8.316;2023-04-03T03:11:20;3.30;99.90
3626;DHT22;1827;50.534;8.316;2023-04-03T03:13:46;3.30;99.90
3626;DHT22;1827;50.534;8.316;2023-04-03T03:16:11;3.30;99.90
3626;DHT22;1827;50.534;8.316;2023-04-03T03:18:37;3.20;99.90
3626;DHT22;1827;50.534;8.316;2023-04-03T03:21:03;3.10;99.90
3626;DHT22;1827;50.534;8.316;2023-04-03T03:23:31;3.10;99.90
3626;DHT22;1827;50.534;8.316;2023-04-03T03:25:59;3.00;99.90
3626;DHT22;1827;50.534;8.316;2023-04-03T03:28:25;3.00;99.90
3626;DHT22;1827;50.534;8.316;2023-04-03T03:30:51;2.90;99.90
3626;DHT22;1827;50.534;8.316;2023-04-03T03:33:18;2.80;99.90
3626;DHT22;1827;50.534;8.316;2023-04-03T03:35:44;2.70;99.90
3626;DHT22;1827;50.534;8.316;2023-04-03T03:38:10;2.60;99.90
3626;DHT22;1827;50.534;8.316;2023-04-03T03:40:36;2.60;99.90
3626;DHT22;1827;50.534;8.316;2023-04-03T03:43:02;2.50;99.90
3626;DHT22;1827;50.534;8.316;2023-04-03T03:45:28;2.50;99.90
3626;DHT22;1827;50.534;8.316;2023-04-03T03:47:54;2.50;99.90
3626;DHT22;1827;50.534;8.316;2023-04-03T03:50:20;2.40;99.90
3626;DHT22;1827;50.534;8.316;2023-04-03T03:52:46;2.50;99.90
3626;DHT22;1827;50.534;8.316;2023-04-03T03:55:11;2.40;99.90
3626;DHT22;1827;50.534;8.316;2023-04-03T03:57:37;2.30;99.90
3626;DHT22;1827;50.534;8.316;2023-04-03T04:00:05;2.20;99.90
3626;DHT22;1827;50.534;8.316;2023-04-03T04:02:41;2.20;99.90
3626;DHT22;1827;50.534;8.316;2023-04-03T04:05:09;2.00;99.90
3626;DHT22;1827;50.534;8.316;2023-04-03T04:07:36;1.90;1.00
3626;DHT22;1827;50.534;8.316;2023-04-03T04:10:02;1.80;1.00
3626;DHT22;1827;50.534;8.316;2023-04-03T04:12:29;1.80;1.00
3626;DHT22;1827;50.534;8.316;2023-04-03T04:14:54;1.80;1.00
3626;DHT22;1827;50.534;8.316;2023-04-03T04:17:21;1.70;1.00
3626;DHT22;1827;50.534;8.316;2023-04-03T04:19:48;1.70;1.00
3626;DHT22;1827;50.534;8.316;2023-04-03T04:22:13;1.70;1.00
3626;DHT22;1827;50.534;8.316;2023-04-03T04:24:39;1.60;1.00
3626;DHT22;1827;50.534;8.316;2023-04-03T04:27:07;1.60;1.00
3626;DHT22;1827;50.534;8.316;2023-04-03T04:29:33;1.50;1.00
3626;DHT22;1827;50.534;8.316;2023-04-03T04:32:03;1.40;1.00
3626;DHT22;1827;50.534;8.316;2023-04-03T04:34:28;1.40;1.00
3626;DHT22;1827;50.534;8.316;2023-04-03T04:36:56;1.40;1.00
3626;DHT22;1827;50.534;8.316;2023-04-03T04:39:22;1.40;1.00
3626;DHT22;1827;50.534;8.316;2023-04-03T04:41:48;1.30;1.00
3626;DHT22;1827;50.534;8.316;2023-04-03T04:44:17;1.20;1.00
3626;DHT22;1827;50.534;8.316;2023-04-03T04:46:42;1.20;1.00
3626;DHT22;1827;50.534;8.316;2023-04-03T04:49:08;1.10;1.00
3626;DHT22;1827;50.534;8.316;2023-04-03T04:51:34;1.00;1.00
3626;DHT22;1827;50.534;8.316;2023-04-03T04:54:00;0.90;1.00
3626;DHT22;1827;50.534;8.316;2023-04-03T04:56:26;0.90;1.00
3626;DHT22;1827;50.534;8.316;2023-04-03T04:58:54;0.80;1.00
3626;DHT22;1827;50.534;8.316;2023-04-03T05:01:21;0.70;1.00
3626;DHT22;1827;50.534;8.316;2023-04-03T05:04:02;0.60;1.00
3626;DHT22;1827;50.534;8.316;2023-04-03T05:06:28;0.60;1.00
3626;DHT22;1827;50.534;8.316;2023-04-03T05:08:56;0.60;1.00
3626;DHT22;1827;50.534;8.316;2023-04-03T05:11:23;0.50;1.00
3626;DHT22;1827;50.534;8.316;2023-04-03T05:13:50;0.50;1.00
3626;DHT22;1827;50.534;8.316;2023-04-03T05:16:16;0.40;1.00
3626;DHT22;1827;50.534;8.316;2023-04-03T05:18:42;0.30;1.00
3626;DHT22;1827;50.534;8.316;2023-04-03T05:21:15;0.30;1.00
3626;DHT22;1827;50.534;8.316;2023-04-03T05:23:41;0.30;1.00
3626;DHT22;1827;50.534;8.316;2023-04-03T05:26:08;0.30;1.00
3626;DHT22;1827;50.534;8.316;2023-04-03T05:28:35;0.20;1.00
3626;DHT22;1827;50.534;8.316;2023-04-03T05:31:01;0.30;1.00
3626;DHT22;1827;50.534;8.316;2023-04-03T05:33:32;0.30;1.00
3626;DHT22;1827;50.534;8.316;2023-04-03T05:36:04;0.40;1.00
3626;DHT22;1827;50.534;8.316;2023-04-03T05:38:32;0.40;1.00
3626;DHT22;1827;50.534;8.316;2023-04-03T05:40:58;0.40;1.00
3626;DHT22;1827;50.534;8.316;2023-04-03T05:43:24;0.50;1.00
3626;DHT22;1827;50.534;8.316;2023-04-03T05:45:51;0.70;1.00
3626;DHT22;1827;50.534;8.316;2023-04-03T05:48:20;0.70;1.00
3626;DHT22;1827;50.534;8.316;2023-04-03T05:50:47;0.80;1.00
3626;DHT22;1827;50.534;8.316;2023-04-03T05:53:26;0.90;1.00
3626;DHT22;1827;50.534;8.316;2023-04-03T05:55:53;1.10;1.00
3626;DHT22;1827;50.534;8.316;2023-04-03T05:58:20;1.20;1.00
3626;DHT22;1827;50.534;8.316;2023-04-03T06:00:47;1.20;1.00
3626;DHT22;1827;50.534;8.316;2023-04-03T06:03:14;1.30;1.00
3626;DHT22;1827;50.534;8.316;2023-04-03T06:05:39;1.30;1.00
3626;DHT22;1827;50.534;8.316;2023-04-03T06:08:05;1.40;1.00
3626;DHT22;1827;50.534;8.316;2023-04-03T06:10:32;1.50;1.00
3626;DHT22;1827;50.534;8.316;2023-04-03T06:12:57;1.60;1.00
3626;DHT22;1827;50.534;8.316;2023-04-03T06:15:23;1.70;1.00
3626;DHT22;1827;50.534;8.316;2023-04-03T06:17:49;1.80;1.00
3626;DHT22;1827;50.534;8.316;2023-04-03T06:20:16;1.90;1.00
3626;DHT22;1827;50.534;8.316;2023-04-03T06:22:42;2.00;1.00
3626;DHT22;1827;50.534;8.316;2023-04-03T06:25:08;2.20;1.00
3626;DHT22;1827;50.534;8.316;2023-04-03T06:27:35;2.20;1.00
3626;DHT22;1827;50.534;8.316;2023-04-03T06:30:01;2.10;1.00
3626;DHT22;1827;50.534;8.316;2023-04-03T06:32:27;2.30;1.00
3626;DHT22;1827;50.534;8.316;2023-04-03T06:34:53;2.20;1.00
3626;DHT22;1827;50.534;8.316;2023-04-03T06:37:21;2.10;1.00
3626;DHT22;1827;50.534;8.316;2023-04-03T06:39:47;2.30;1.00
3626;DHT22;1827;50.534;8.316;2023-04-03T06:42:13;2.30;1.00
3626;DHT22;1827;50.534;8.316;2023-04-03T06:44:47;2.20;1.00
3626;DHT22;1827;50.534;8.316;2023-04-03T06:47:14;2.00;1.00
3626;DHT22;1827;50.534;8.316;2023-04-03T06:49:40;2.00;1.00
3626;DHT22;1827;50.534;8.316;2023-04-03T06:52:07;2.00;1.00
3626;DHT22;1827;50.534;8.316;2023-04-03T06:54:33;2.00;1.00
3626;DHT22;1827;50.534;8.316;2023-04-03T06:56:59;1.90;1.00
3626;DHT22;1827;50.534;8.316;2023-04-03T06:59:25;2.10;1.00
3626;DHT22;1827;50.534;8.316;2023-04-03T07:01:51;2.20;1.00
3626;DHT22;1827;50.534;8.316;2023-04-03T07:04:17;2.30;1.00
3626;DHT22;1827;50.534;8.316;2023-04-03T07:06:43;2.70;1.00
3626;DHT22;1827;50.534;8.316;2023-04-03T07:09:10;2.40;1.00
3626;DHT22;1827;50.534;8.316;2023-04-03T07:11:36;2.40;1.00
3626;DHT22;1827;50.534;8.316;2023-04-03T07:14:02;2.50;1.00
3626;DHT22;1827;50.534;8.316;2023-04-03T07:16:28;2.50;1.00
3626;DHT22;1827;50.534;8.316;2023-04-03T07:18:56;2.70;1.00
3626;DHT22;1827;50.534;8.316;2023-04-03T07:21:22;2.80;1.00
3626;DHT22;1827;50.534;8.316;2023-04-03T07:23:48;2.60;1.00
3626;DHT22;1827;50.534;8.316;2023-04-03T07:26:15;2.80;1.00
3626;DHT22;1827;50.534;8.316;2023-04-03T07:28:41;2.80;1.00
3626;DHT22;1827;50.534;8.316;2023-04-03T07:31:10;2.60;1.00
3626;DHT22;1827;50.534;8.316;2023-04-03T07:33:38;2.70;1.00
3626;DHT22;1827;50.534;8.316;2023-04-03T07:36:05;3.00;1.00
3626;DHT22;1827;50.534;8.316;2023-04-03T07:38:32;3.00;1.00
3626;DHT22;1827;50.534;8.316;2023-04-03T07:40:58;2.70;1.00
3626;DHT22;1827;50.534;8.316;2023-04-03T07:43:23;2.80;1.00
3626;DHT22;1827;50.534;8.316;2023-04-03T07:45:50;3.10;1.00
3626;DHT22;1827;50.534;8.316;2023-04-03T07:48:24;3.10;1.00
3626;DHT22;1827;50.534;8.316;2023-04-03T07:50:51;3.20;1.00
3626;DHT22;1827;50.534;8.316;2023-04-03T07:53:17;3.10;1.00
3626;DHT22;1827;50.534;8.316;2023-04-03T07:55:46;3.00;99.90
3626;DHT22;1827;50.534;8.316;2023-04-03T07:58:17;2.90;99.90
3626;DHT22;1827;50.534;8.316;2023-04-03T08:00:43;3.60;1.00
3626;DHT22;1827;50.534;8.316;2023-04-03T08:03:10;3.30;99.90
3626;DHT22;1827;50.534;8.316;2023-04-03T08:05:41;3.30;99.90
3626;DHT22;1827;50.534;8.316;2023-04-03T08:08:07;3.40;99.90
3626;DHT22;1827;50.534;8.316;2023-04-03T08:10:34;3.40;99.90
3626;DHT22;1827;50.534;8.316;2023-04-03T08:13:00;3.30;99.90
3626;DHT22;1827;50.534;8.316;2023-04-03T08:15:26;3.30;99.90
3626;DHT22;1827;50.534;8.316;2023-04-03T08:17:52;3.50;99.90
3626;DHT22;1827;50.534;8.316;2023-04-03T08:20:18;3.30;99.90
3626;DHT22;1827;50.534;8.316;2023-04-03T08:22:44;3.40;99.90
3626;DHT22;1827;50.534;8.316;2023-04-03T08:25:10;3.70;99.90
3626;DHT22;1827;50.534;8.316;2023-04-03T08:27:35;3.70;99.90
3626;DHT22;1827;50.534;8.316;2023-04-03T08:30:01;3.80;99.90
3626;DHT22;1827;50.534;8.316;2023-04-03T08:32:27;3.50;99.90
3626;DHT22;1827;50.534;8.316;2023-04-03T08:34:53;3.30;99.90
3626;DHT22;1827;50.534;8.316;2023-04-03T08:37:19;3.50;99.90
3626;DHT22;1827;50.534;8.316;2023-04-03T08:39:45;3.60;99.90
3626;DHT22;1827;50.534;8.316;2023-04-03T08:45:44;3.50;99.90
3626;DHT22;1827;50.534;8.316;2023-04-03T08:48:19;3.70;99.90
3626;DHT22;1827;50.534;8.316;2023-04-03T08:50:53;3.90;99.90
3626;DHT22;1827;50.534;8.316;2023-04-03T08:53:25;4.00;99.90
3626;DHT22;1827;50.534;8.316;2023-04-03T08:55:55;4.00;99.90
3626;DHT22;1827;50.534;8.316;2023-04-03T08:58:28;3.80;99.90
3626;DHT22;1827;50.534;8.316;2023-04-03T09:01:02;3.70;99.90
3626;DHT22;1827;50.534;8.316;2023-04-03T09:03:35;4.40;99.90
3626;DHT22;1827;50.534;8.316;2023-04-03T09:06:21;4.20;99.90
3626;DHT22;1827;50.534;8.316;2023-04-03T09:09:11;4.40;99.90
3626;DHT22;1827;50.534;8.316;2023-04-03T09:11:44;4.20;99.90
3626;DHT22;1827;50.534;8.316;2023-04-03T09:16:47;4.00;99.90
3626;DHT22;1827;50.534;8.316;2023-04-03T09:22:22;4.20;99.90
3626;DHT22;1827;50.534;8.316;2023-04-03T09:25:05;4.70;99.90
3626;DHT22;1827;50.534;8.316;2023-04-03T09:27:35;5.40;99.90
3626;DHT22;1827;50.534;8.316;2023-04-03T09:30:01;6.00;99.90
3626;DHT22;1827;50.534;8.316;2023-04-03T09:32:31;5.00;99.90
3626;DHT22;1827;50.534;8.316;2023-04-03T09:37:40;4.40;99.90
3626;DHT22;1827;50.534;8.316;2023-04-03T09:43:01;4.50;99.90
3626;DHT22;1827;50.534;8.316;2023-04-03T09:45:28;4.60;99.90
3626;DHT22;1827;50.534;8.316;2023-04-03T09:48:24;4.40;99.90
3626;DHT22;1827;50.534;8.316;2023-04-03T09:55:52;5.30;99.90
3626;DHT22;1827;50.534;8.316;2023-04-03T09:58:51;5.00;99.90
3626;DHT22;1827;50.534;8.316;2023-04-03T10:01:36;4.20;99.90
3626;DHT22;1827;50.534;8.316;2023-04-03T10:04:15;4.60;99.90
3626;DHT22;1827;50.534;8.316;2023-04-03T10:06:49;5.00;99.90
3626;DHT22;1827;50.534;8.316;2023-04-03T10:09:30;5.90;99.90
3626;DHT22;1827;50.534;8.316;2023-04-03T10:12:06;6.10;99.90
3626;DHT22;1827;50.534;8.316;2023-04-03T10:14:39;6.50;99.90
3626;DHT22;1827;50.534;8.316;2023-04-03T10:17:22;5.80;99.90
3626;DHT22;1827;50.534;8.316;2023-04-03T10:25:33;6.90;99.90
3626;DHT22;1827;50.534;8.316;2023-04-03T10:28:02;6.00;99.90
3626;DHT22;1827;50.534;8.316;2023-04-03T10:33:11;6.70;99.90
3626;DHT22;1827;50.534;8.316;2023-04-03T10:35:59;6.40;99.90
3626;DHT22;1827;50.534;8.316;2023-04-03T10:47:15;7.10;99.90
3626;DHT22;1827;50.534;8.316;2023-04-03T10:57:54;6.50;99.90
3626;DHT22;1827;50.534;8.316;2023-04-03T11:00:31;7.00;99.90
3626;DHT22;1827;50.534;8.316;2023-04-03T11:03:05;7.10;99.90
3626;DHT22;1827;50.534;8.316;2023-04-03T11:05:45;6.70;99.90
3626;DHT22;1827;50.534;8.316;2023-04-03T11:08:33;5.70;99.90
3626;DHT22;1827;50.534;8.316;2023-04-03T11:11:11;5.90;99.90
3626;DHT22;1827;50.534;8.316;2023-04-03T11:16:27;6.10;99.90
3626;DHT22;1827;50.534;8.316;2023-04-03T11:18:59;6.90;99.90
3626;DHT22;1827;50.534;8.316;2023-04-03T11:21:31;7.20;99.90
3626;DHT22;1827;50.534;8.316;2023-04-03T11:24:02;6.90;99.90
3626;DHT22;1827;50.534;8.316;2023-04-03T11:26:36;7.40;99.90
3626;DHT22;1827;50.534;8.316;2023-04-03T11:29:12;7.10;99.90
3626;DHT22;1827;50.534;8.316;2023-04-03T11:37:00;8.10;99.90
3626;DHT22;1827;50.534;8.316;2023-04-03T11:39:32;7.60;99.90
3626;DHT22;1827;50.534;8.316;2023-04-03T11:44:40;7.90;99.90
3626;DHT22;1827;50.534;8.316;2023-04-03T11:47:08;6.90;99.90
3626;DHT22;1827;50.534;8.316;2023-04-03T12:05:51;8.30;99.90
3626;DHT22;1827;50.534;8.316;2023-04-03T12:16:32;8.90;99.90
3626;DHT22;1827;50.534;8.316;2023-04-03T12:24:31;7.00;99.90
3626;DHT22;1827;50.534;8.316;2023-04-03T12:37:19;7.70;99.90
3626;DHT22;1827;50.534;8.316;2023-04-03T12:45:51;6.80;99.90
3626;DHT22;1827;50.534;8.316;2023-04-03T12:48:27;7.00;99.90
3626;DHT22;1827;50.534;8.316;2023-04-03T12:50:53;7.20;99.90
3626;DHT22;1827;50.534;8.316;2023-04-03T12:53:26;7.20;99.90
3626;DHT22;1827;50.534;8.316;2023-04-03T12:55:56;7.40;99.90
3626;DHT22;1827;50.534;8.316;2023-04-03T12:58:27;7.30;99.90
3626;DHT22;1827;50.534;8.316;2023-04-03T13:01:17;7.20;99.90
3626;DHT22;1827;50.534;8.316;2023-04-03T13:04:10;7.50;99.90
3626;DHT22;1827;50.534;8.316;2023-04-03T13:06:42;7.20;99.90
3626;DHT22;1827;50.534;8.316;2023-04-03T13:09:21;6.80;99.90
3626;DHT22;1827;50.534;8.316;2023-04-03T13:11:49;6.70;99.90
3626;DHT22;1827;50.534;8.316;2023-04-03T13:14:18;7.10;99.90
3626;DHT22;1827;50.534;8.316;2023-04-03T13:17:06;7.70;99.90
3626;DHT22;1827;50.534;8.316;2023-04-03T13:19:36;7.20;99.90
3626;DHT22;1827;50.534;8.316;2023-04-03T13:22:06;7.20;99.90
3626;DHT22;1827;50.534;8.316;2023-04-03T13:24:36;7.90;99.90
3626;DHT22;1827;50.534;8.316;2023-04-03T13:27:03;8.10;99.90
3626;DHT22;1827;50.534;8.316;2023-04-03T13:29:33;8.20;99.90
3626;DHT22;1827;50.534;8.316;2023-04-03T13:32:00;8.90;99.90
3626;DHT22;1827;50.534;8.316;2023-04-03T13:34:41;8.50;99.90
3626;DHT22;1827;50.534;8.316;2023-04-03T13:37:27;8.40;99.90
3626;DHT22;1827;50.534;8.316;2023-04-03T13:40:04;9.40;99.90
3626;DHT22;1827;50.534;8.316;2023-04-03T13:42:38;7.80;99.90
3626;DHT22;1827;50.534;8.316;2023-04-03T13:45:21;7.70;99.90
3626;DHT22;1827;50.534;8.316;2023-04-03T13:47:50;7.80;99.90
3626;DHT22;1827;50.534;8.316;2023-04-03T13:50:24;7.90;99.90
3626;DHT22;1827;50.534;8.316;2023-04-03T13:53:15;7.20;99.90
3626;DHT22;1827;50.534;8.316;2023-04-03T13:56:09;8.00;99.90
3626;DHT22;1827;50.534;8.316;2023-04-03T13:58:36;8.10;99.90
3626;DHT22;1827;50.534;8.316;2023-04-03T14:01:20;8.70;99.90
3626;DHT22;1827;50.534;8.316;2023-04-03T14:03:59;8.90;99.90
3626;DHT22;1827;50.534;8.316;2023-04-03T14:06:25;8.40;99.90
3626;DHT22;1827;50.534;8.316;2023-04-03T14:08:51;8.10;99.90
3626;DHT22;1827;50.534;8.316;2023-04-03T14:11:21;8.10;99.90
3626;DHT22;1827;50.534;8.316;2023-04-03T14:13:48;7.60;99.90
3626;DHT22;1827;50.534;8.316;2023-04-03T14:16:17;8.30;99.90
3626;DHT22;1827;50.534;8.316;2023-04-03T14:18:44;7.50;99.90
3626;DHT22;1827;50.534;8.316;2023-04-03T14:21:12;7.30;99.90
3626;DHT22;1827;50.534;8.316;2023-04-03T14:23:38;7.60;99.90
3626;DHT22;1827;50.534;8.316;2023-04-03T14:26:10;8.00;99.90
3626;DHT22;1827;50.534;8.316;2023-04-03T14:28:37;8.20;99.90
3626;DHT22;1827;50.534;8.316;2023-04-03T14:31:02;7.30;99.90
3626;DHT22;1827;50.534;8.316;2023-04-03T14:33:28;6.80;99.90
3626;DHT22;1827;50.534;8.316;2023-04-03T14:35:56;7.20;99.90
3626;DHT22;1827;50.534;8.316;2023-04-03T14:38:27;7.10;99.90
3626;DHT22;1827;50.534;8.316;2023-04-03T14:40:54;7.10;99.90
3626;DHT22;1827;50.534;8.316;2023-04-03T14:43:20;7.10;99.90
3626;DHT22;1827;50.534;8.316;2023-04-03T14:45:47;7.00;99.90
3626;DHT22;1827;50.534;8.316;2023-04-03T14:48:18;7.10;99.90
3626;DHT22;1827;50.534;8.316;2023-04-03T14:50:44;7.10;99.90
3626;DHT22;1827;50.534;8.316;2023-04-03T14:53:12;7.20;99.90
3626;DHT22;1827;50.534;8.316;2023-04-03T14:55:46;7.20;99.90
3626;DHT22;1827;50.534;8.316;2023-04-03T14:58:17;7.30;99.90
3626;DHT22;1827;50.534;8.316;2023-04-03T15:00:43;7.10;99.90
3626;DHT22;1827;50.534;8.316;2023-04-03T15:03:18;7.10;99.90
3626;DHT22;1827;50.534;8.316;2023-04-03T15:05:45;7.30;99.90
3626;DHT22;1827;50.534;8.316;2023-04-03T15:10:43;7.00;99.90
3626;DHT22;1827;50.534;8.316;2023-04-03T15:13:11;7.10;99.90
3626;DHT22;1827;50.534;8.316;2023-04-03T15:15:38;6.90;99.90
3626;DHT22;1827;50.534;8.316;2023-04-03T15:18:04;7.20;99.90
3626;DHT22;1827;50.534;8.316;2023-04-03T15:20:30;6.90;99.90
3626;DHT22;1827;50.534;8.316;2023-04-03T15:23:00;7.10;99.90
3626;DHT22;1827;50.534;8.316;2023-04-03T15:25:30;7.10;99.90
3626;DHT22;1827;50.534;8.316;2023-04-03T15:27:57;7.20;99.90
3626;DHT22;1827;50.534;8.316;2023-04-03T15:30:23;7.20;99.90
3626;DHT22;1827;50.534;8.316;2023-04-03T15:32:49;7.30;99.90
3626;DHT22;1827;50.534;8.316;2023-04-03T15:35:15;7.50;99.90
3626;DHT22;1827;50.534;8.316;2023-04-03T15:37:41;7.20;99.90
3626;DHT22;1827;50.534;8.316;2023-04-03T15:40:07;7.10;99.90
3626;DHT22;1827;50.534;8.316;2023-04-03T15:42:33;6.80;99.90
3626;DHT22;1827;50.534;8.316;2023-04-03T15:44:59;6.90;99.90
3626;DHT22;1827;50.534;8.316;2023-04-03T15:47:25;6.70;99.90
3626;DHT22;1827;50.534;8.316;2023-04-03T15:49:52;6.80;99.90
3626;DHT22;1827;50.534;8.316;2023-04-03T15:52:18;6.90;99.90
3626;DHT22;1827;50.534;8.316;2023-04-03T15:54:44;7.00;99.90
3626;DHT22;1827;50.534;8.316;2023-04-03T15:57:10;7.00;99.90
3626;DHT22;1827;50.534;8.316;2023-04-03T15:59:35;6.80;99.90
3626;DHT22;1827;50.534;8.316;2023-04-03T16:02:03;6.90;99.90
3626;DHT22;1827;50.534;8.316;2023-04-03T16:04:30;6.90;99.90
3626;DHT22;1827;50.534;8.316;2023-04-03T16:06:56;6.90;99.90
3626;DHT22;1827;50.534;8.316;2023-04-03T16:09:22;6.70;99.90
3626;DHT22;1827;50.534;8.316;2023-04-03T16:11:47;6.80;99.90
3626;DHT22;1827;50.534;8.316;2023-04-03T16:14:13;6.70;99.90
3626;DHT22;1827;50.534;8.316;2023-04-03T16:16:39;6.70;99.90
3626;DHT22;1827;50.534;8.316;2023-04-03T16:19:05;6.70;99.90
3626;DHT22;1827;50.534;8.316;2023-04-03T16:21:32;6.70;99.90
3626;DHT22;1827;50.534;8.316;2023-04-03T16:23:58;6.70;99.90
3626;DHT22;1827;50.534;8.316;2023-04-03T16:26:24;6.80;99.90
3626;DHT22;1827;50.534;8.316;2023-04-03T16:28:51;6.80;99.90
3626;DHT22;1827;50.534;8.316;2023-04-03T16:31:16;6.50;99.90
3626;DHT22;1827;50.534;8.316;2023-04-03T16:33:42;6.40;99.90
3626;DHT22;1827;50.534;8.316;2023-04-03T16:36:08;6.30;99.90
3626;DHT22;1827;50.534;8.316;2023-04-03T16:38:34;6.40;99.90
3626;DHT22;1827;50.534;8.316;2023-04-03T16:40:59;6.40;99.90
3626;DHT22;1827;50.534;8.316;2023-04-03T16:43:32;6.30;99.90
3626;DHT22;1827;50.534;8.316;2023-04-03T16:45:59;6.30;99.90
3626;DHT22;1827;50.534;8.316;2023-04-03T16:48:28;6.30;99.90
3626;DHT22;1827;50.534;8.316;2023-04-03T16:50:53;6.30;99.90
3626;DHT22;1827;50.534;8.316;2023-04-03T16:53:20;6.20;99.90
3626;DHT22;1827;50.534;8.316;2023-04-03T16:55:46;6.20;99.90
3626;DHT22;1827;50.534;8.316;2023-04-03T16:58:12;6.20;99.90
3626;DHT22;1827;50.534;8.316;2023-04-03T17:00:37;6.10;99.90
3626;DHT22;1827;50.534;8.316;2023-04-03T17:03:03;6.10;99.90
3626;DHT22;1827;50.534;8.316;2023-04-03T17:05:29;6.10;99.90
3626;DHT22;1827;50.534;8.316;2023-04-03T17:07:55;6.10;99.90
3626;DHT22;1827;50.534;8.316;2023-04-03T17:10:21;6.10;99.90
3626;DHT22;1827;50.534;8.316;2023-04-03T17:12:46;6.00;99.90
3626;DHT22;1827;50.534;8.316;2023-04-03T17:15:12;6.10;99.90
3626;DHT22;1827;50.534;8.316;2023-04-03T17:17:38;6.00;99.90
3626;DHT22;1827;50.534;8.316;2023-04-03T17:20:04;6.00;99.90
3626;DHT22;1827;50.534;8.316;2023-04-03T17:22:30;5.90;99.90
3626;DHT22;1827;50.534;8.316;2023-04-03T17:24:57;5.80;99.90
3626;DHT22;1827;50.534;8.316;2023-04-03T17:27:23;5.70;99.90
3626;DHT22;1827;50.534;8.316;2023-04-03T17:29:49;5.60;99.90
3626;DHT22;1827;50.534;8.316;2023-04-03T17:32:15;5.60;99.90
3626;DHT22;1827;50.534;8.316;2023-04-03T17:34:41;5.50;99.90
3626;DHT22;1827;50.534;8.316;2023-04-03T17:37:07;5.50;99.90
3626;DHT22;1827;50.534;8.316;2023-04-03T17:39:33;5.30;99.90
3626;DHT22;1827;50.534;8.316;2023-04-03T17:41:59;5.30;99.90
3626;DHT22;1827;50.534;8.316;2023-04-03T17:44:25;5.20;99.90
3626;DHT22;1827;50.534;8.316;2023-04-03T17:46:51;5.20;99.90
3626;DHT22;1827;50.534;8.316;2023-04-03T17:49:17;5.10;99.90
3626;DHT22;1827;50.534;8.316;2023-04-03T17:51:45;5.10;99.90
3626;DHT22;1827;50.534;8.316;2023-04-03T17:54:11;5.00;99.90
3626;DHT22;1827;50.534;8.316;2023-04-03T17:56:38;5.00;99.90
3626;DHT22;1827;50.534;8.316;2023-04-03T17:59:03;4.90;99.90
3626;DHT22;1827;50.534;8.316;2023-04-03T18:01:32;4.90;99.90
3626;DHT22;1827;50.534;8.316;2023-04-03T18:04:00;4.80;99.90
3626;DHT22;1827;50.534;8.316;2023-04-03T18:06:32;4.70;99.90
3626;DHT22;1827;50.534;8.316;2023-04-03T18:09:04;4.80;99.90
3626;DHT22;1827;50.534;8.316;2023-04-03T18:11:30;4.70;99.90
3626;DHT22;1827;50.534;8.316;2023-04-03T18:13:58;4.60;99.90
3626;DHT22;1827;50.534;8.316;2023-04-03T18:16:26;4.50;99.90
3626;DHT22;1827;50.534;8.316;2023-04-03T18:18:52;4.50;99.90
3626;DHT22;1827;50.534;8.316;2023-04-03T18:21:17;4.40;99.90